1927 NOT_NAMED (1927339N10130)


IBTrACS version v04r00. Visit IBTrACS website for data access.
Please direct all questions to the IBTrACS Q and A forum

Storm track - Intensity - Wind Radii - Intensity Data - Source Data - All data

Summary Information

Storm ID 1927339N10130
Start Dec 4 22Z
Landfall Dec 5 15Z
End Dec 8 22Z
ATCF IDs
Track status Best track data.

Storm track plot

Map of storm track

Intensity plots

No Intensity information for this storm


Radial wind information

No radial wind information for this storm


Position and Intensity Table

BASIN ISO_TIME_________ NATURE LAT LON
degrees north degrees east
WP 1927-12-04 22:00:00 NR 10.10 129.90
WP 1927-12-05 00:00:00 NR 10.33 129.31
WP 03:00:00 NR 10.67 128.43
WP 06:00:00 NR 10.97 127.56
WP 09:00:00 NR 11.23 126.69
WP 10:00:00 NR 11.30 126.40
WP 12:00:00 NR 11.42 125.83
WP 15:00:00 NR 11.56 124.99
WP 18:00:00 NR 11.64 124.17
WP 21:00:00 NR 11.69 123.36
WP 22:00:00 NR 11.70 123.10
WP 1927-12-06 00:00:00 NR 11.73 122.58
WP 03:00:00 NR 11.74 121.83
WP 06:00:00 NR 11.74 121.08
WP 09:00:00 NR 11.71 120.35
WP 10:00:00 NR 11.70 120.10
WP 12:00:00 NR 11.67 119.55
WP 15:00:00 NR 11.62 118.72
WP 18:00:00 NR 11.56 117.95
WP 21:00:00 NR 11.51 117.29
WP 22:00:00 NR 11.50 117.10
WP 1927-12-07 00:00:00 NR 11.49 116.82
WP 03:00:00 NR 11.49 116.51
WP 06:00:00 NR 11.50 116.29
WP 09:00:00 NR 11.50 116.08
WP 10:00:00 NR 11.50 116.00
WP 12:00:00 NR 11.50 115.78
WP 15:00:00 NR 11.49 115.43
WP 18:00:00 NR 11.46 115.08
WP 21:00:00 NR 11.42 114.72
WP 22:00:00 NR 11.40 114.60
WP 1927-12-08 00:00:00 NR 11.35 114.38
WP 03:00:00 NR 11.26 114.05
WP 06:00:00 NR 11.15 113.73
WP 09:00:00 NR 11.04 113.41
WP 10:00:00 NR 11.00 113.30
WP 12:00:00 NR 10.93 113.09
WP 15:00:00 NR 10.83 112.76
WP 18:00:00 NR 10.73 112.44
WP 21:00:00 NR 10.63 112.11
WP 22:00:00 NR 10.60 112.00

Source Information

Agency Information
USA
TOKYO
CMA
HKO
NEWDELHI
REUNION
BOM
NADI
WELLINGTON
DS824
TD9636 cons_worldwide_trop_cyclone_18710101-19891231-003:Line=7980
TD9635
NEUMANN
MLC

All available IBTrACS Data

SEASON BASIN SUBBASIN ISO_TIME_________ NATURE LAT LON DIST2LAND LANDFALL IFLAG USA SSHS TD9636 LAT TD9636 LON TD9636 STAGE STORM SPEED STORM DIR
Year degrees north degrees east km km 1 degrees north degrees east kts degrees
1927 WP MM 1927-12-04 22:00:00 NR 10.10 129.90 418 361 __________O___ -1 10.10 129.90 2 19 292
1927 WP MM 1927-12-05 00:00:00 NR 10.33 129.31 361 286 __________P___ -1 10.33 129.31 2 19 291
1927 WP MM 03:00:00 NR 10.67 128.43 286 196 __________P___ -1 10.67 128.43 2 18 290
1927 WP MM 06:00:00 NR 10.97 127.56 196 100 __________P___ -1 10.97 127.56 2 18 288
1927 WP MM 09:00:00 NR 11.23 126.69 100 73 __________P___ -1 11.23 126.69 2 18 286
1927 WP MM 10:00:00 NR 11.30 126.40 73 21 __________O___ -1 11.30 126.40 2 17 283
1927 WP MM 12:00:00 NR 11.42 125.83 21 0 __________P___ -1 11.42 125.83 2 17 280
1927 WP MM 15:00:00 NR 11.56 124.99 0 10 __________P___ -1 11.56 124.99 2 16 278
1927 WP MM 18:00:00 NR 11.64 124.17 15 10 __________P___ -1 11.64 124.17 2 16 275
1927 WP MM 21:00:00 NR 11.69 123.36 39 22 __________P___ -1 11.69 123.36 2 16 273
1927 WP MM 22:00:00 NR 11.70 123.10 22 15 __________O___ -1 11.70 123.10 2 15 273
1927 WP MM 1927-12-06 00:00:00 NR 11.73 122.58 15 0 __________P___ -1 11.73 122.58 2 15 272
1927 WP MM 03:00:00 NR 11.74 121.83 11 11 __________P___ -1 11.74 121.83 2 15 270
1927 WP MM 06:00:00 NR 11.74 121.08 55 57 __________P___ -1 11.74 121.08 2 15 269
1927 WP MM 09:00:00 NR 11.71 120.35 88 70 __________P___ -1 11.71 120.35 2 14 268
1927 WP MM 10:00:00 NR 11.70 120.10 70 44 __________O___ -1 11.70 120.10 2 16 267
1927 WP MM 12:00:00 NR 11.67 119.55 44 44 __________P___ -1 11.67 119.55 2 16 267
1927 WP MM 15:00:00 NR 11.62 118.72 88 88 __________P___ -1 11.62 118.72 2 16 266
1927 WP MM 18:00:00 NR 11.56 117.95 169 169 __________P___ -1 11.56 117.95 2 14 266
1927 WP MM 21:00:00 NR 11.51 117.29 226 226 __________P___ -1 11.51 117.29 2 13 266
1927 WP MM 22:00:00 NR 11.50 117.10 243 243 __________O___ -1 11.50 117.10 7 9 267
1927 WP MM 1927-12-07 00:00:00 NR 11.49 116.82 269 269 __________P___ -1 11.49 116.82 7 7 269
1927 WP MM 03:00:00 NR 11.49 116.51 294 294 __________P___ -1 11.49 116.51 7 5 271
1927 WP MM 06:00:00 NR 11.50 116.29 305 305 __________P___ -1 11.50 116.29 7 4 272
1927 WP MM 09:00:00 NR 11.50 116.08 317 317 __________P___ -1 11.50 116.08 7 4 271
1927 WP MM 10:00:00 NR 11.50 116.00 324 324 __________O___ -1 11.50 116.00 7 6 269
1927 WP MM 12:00:00 NR 11.50 115.78 338 338 __________P___ -1 11.50 115.78 7 7 269
1927 WP MM 15:00:00 NR 11.49 115.43 367 367 __________P___ -1 11.49 115.43 7 7 267
1927 WP MM 18:00:00 NR 11.46 115.08 391 391 __________P___ -1 11.46 115.08 7 7 265
1927 WP MM 21:00:00 NR 11.42 114.72 415 415 __________P___ -1 11.42 114.72 7 7 262
1927 WP MM 22:00:00 NR 11.40 114.60 423 423 __________O___ -1 11.40 114.60 7 7 258
1927 WP MM 1927-12-08 00:00:00 NR 11.35 114.38 440 433 __________P___ -1 11.35 114.38 7 7 255
1927 WP MM 03:00:00 NR 11.26 114.05 459 461 __________P___ -1 11.26 114.05 7 7 252
1927 WP MM 06:00:00 NR 11.15 113.73 483 458 __________P___ -1 11.15 113.73 7 7 251
1927 WP MM 09:00:00 NR 11.04 113.41 458 447 __________P___ -1 11.04 113.41 7 7 250
1927 WP MM 10:00:00 NR 11.00 113.30 447 429 __________O___ -1 11.00 113.30 7 7 251
1927 WP MM 12:00:00 NR 10.93 113.09 429 401 __________P___ -1 10.93 113.09 7 7 252
1927 WP MM 15:00:00 NR 10.83 112.76 401 363 __________P___ -1 10.83 112.76 7 7 253
1927 WP MM 18:00:00 NR 10.73 112.44 363 338 __________P___ -1 10.73 112.44 7 7 253
1927 WP MM 21:00:00 NR 10.63 112.11 338 328 __________P___ -1 10.63 112.11 7 7 253
1927 WP MM 22:00:00 NR 10.60 112.00 328 __________O___ -1 10.60 112.00 7 7 253